createdAt,value
2017-03-12T00:00:33.617Z,3.86
2017-03-12T00:01:14.495Z,3.87
2017-03-12T00:01:55.383Z,3.94
2017-03-12T00:02:36.275Z,3.95
2017-03-12T00:03:17.155Z,3.94
2017-03-12T00:03:58.039Z,4.08
2017-03-12T00:04:38.923Z,4.13
2017-03-12T00:05:19.806Z,4.05
2017-03-12T00:06:00.690Z,3.92
2017-03-12T00:06:41.569Z,3.84
2017-03-12T00:07:22.456Z,3.95
2017-03-12T00:08:03.334Z,3.98
2017-03-12T00:08:44.221Z,3.98
2017-03-12T00:09:25.814Z,3.95
2017-03-12T00:10:06.005Z,4.04
2017-03-12T00:10:46.889Z,3.96
2017-03-12T00:11:27.771Z,3.96
2017-03-12T00:12:08.648Z,3.96
2017-03-12T00:12:49.536Z,3.86
2017-03-12T00:13:30.421Z,3.88
2017-03-12T00:14:11.300Z,4.06
2017-03-12T00:14:52.181Z,4.13
2017-03-12T00:15:33.066Z,4.04
2017-03-12T00:16:13.947Z,4.13
2017-03-12T00:16:54.831Z,4.1
2017-03-12T00:17:35.716Z,4.02
2017-03-12T00:18:16.614Z,4.02
2017-03-12T00:18:57.491Z,4.12
2017-03-12T00:19:38.364Z,3.99
2017-03-12T00:20:19.244Z,3.83
2017-03-12T00:21:00.139Z,3.77
2017-03-12T00:21:41.023Z,3.83
2017-03-12T00:22:21.897Z,3.94
2017-03-12T00:23:02.776Z,3.76
2017-03-12T00:23:43.664Z,3.76
2017-03-12T00:24:24.549Z,3.62
2017-03-12T00:25:05.426Z,3.77
2017-03-12T00:25:46.306Z,3.83
2017-03-12T00:26:27.196Z,3.87
2017-03-12T00:27:08.078Z,3.94
2017-03-12T00:27:48.959Z,4.04
2017-03-12T00:28:29.847Z,3.86
2017-03-12T00:29:10.731Z,3.94
2017-03-12T00:29:51.608Z,3.98
2017-03-12T00:30:32.482Z,4.08
2017-03-12T00:31:13.370Z,4.14
2017-03-12T00:31:54.253Z,4.12
2017-03-12T00:32:35.126Z,4.02
2017-03-12T00:33:16.001Z,3.99
2017-03-12T00:33:56.881Z,3.87
2017-03-12T00:34:37.765Z,3.86
2017-03-12T00:35:18.646Z,3.94
2017-03-12T00:35:59.545Z,3.78
2017-03-12T00:36:40.398Z,3.77
2017-03-12T00:37:21.281Z,3.63
2017-03-12T00:38:02.178Z,3.58
2017-03-12T00:38:43.057Z,3.59
2017-03-12T00:39:23.936Z,3.44
2017-03-12T00:40:04.820Z,3.44
2017-03-12T00:40:45.710Z,3.48
2017-03-12T00:41:26.590Z,3.53
2017-03-12T00:42:07.469Z,3.4
2017-03-12T00:42:48.351Z,3.48
2017-03-12T00:43:29.243Z,3.41
2017-03-12T00:44:10.129Z,3.55
2017-03-12T00:44:51.012Z,3.5
2017-03-12T00:45:31.895Z,3.51
2017-03-12T00:46:12.781Z,3.41
2017-03-12T00:46:53.666Z,3.58
2017-03-12T00:47:34.547Z,3.55
2017-03-12T00:48:15.428Z,3.76
2017-03-12T00:48:56.320Z,3.62
2017-03-12T00:49:37.237Z,3.47
2017-03-12T00:50:18.093Z,3.55
2017-03-12T00:50:58.979Z,3.48
2017-03-12T00:51:39.861Z,3.47
2017-03-12T00:52:20.740Z,3.41
2017-03-12T00:53:01.630Z,3.44
2017-03-12T00:53:42.503Z,3.51
2017-03-12T00:54:23.389Z,3.66
2017-03-12T00:55:04.269Z,3.74
2017-03-12T00:55:45.150Z,3.63
2017-03-12T00:56:26.036Z,3.6
2017-03-12T00:57:06.917Z,3.51
2017-03-12T00:57:47.798Z,3.62
2017-03-12T00:58:28.668Z,3.51
2017-03-12T00:59:09.547Z,3.44
2017-03-12T00:59:50.437Z,3.41
2017-03-12T01:00:31.321Z,3.42
2017-03-12T01:01:12.202Z,3.42
2017-03-12T01:01:53.083Z,3.48
2017-03-12T01:02:33.971Z,3.55
2017-03-12T01:03:14.857Z,3.48
2017-03-12T01:03:55.742Z,3.42
2017-03-12T01:04:36.644Z,3.36
2017-03-12T01:05:17.525Z,3.47
2017-03-12T01:05:58.402Z,3.47
2017-03-12T01:06:39.283Z,3.48
2017-03-12T01:07:20.163Z,3.56
2017-03-12T01:08:01.049Z,3.55
2017-03-12T01:08:41.934Z,3.6
2017-03-12T01:09:22.816Z,3.55
2017-03-12T01:10:03.696Z,3.53
2017-03-12T01:10:44.579Z,3.59
2017-03-12T01:11:25.463Z,3.66
2017-03-12T01:12:06.343Z,3.62
2017-03-12T01:12:47.243Z,3.48
2017-03-12T01:13:28.125Z,3.41
2017-03-12T01:14:09.003Z,3.37
2017-03-12T01:14:49.887Z,3.44
2017-03-12T01:15:30.773Z,3.48
2017-03-12T01:16:11.654Z,3.41
2017-03-12T01:16:52.532Z,3.44
2017-03-12T01:17:33.411Z,3.55
2017-03-12T01:18:14.302Z,3.44
2017-03-12T01:18:55.185Z,3.41
2017-03-12T01:19:36.074Z,3.58
2017-03-12T01:20:16.955Z,3.28
2017-03-12T01:20:57.841Z,3.23
2017-03-12T01:21:38.718Z,3.29
2017-03-12T01:22:19.608Z,3.28
2017-03-12T01:23:00.497Z,3.36
2017-03-12T01:23:41.385Z,3.4
2017-03-12T01:24:22.272Z,3.31
2017-03-12T01:25:03.157Z,3.23
2017-03-12T01:25:44.040Z,3.22
2017-03-12T01:26:24.925Z,3.25
2017-03-12T01:27:05.806Z,3.14
2017-03-12T01:27:46.688Z,3.4
2017-03-12T01:28:27.573Z,3.32
2017-03-12T01:29:08.474Z,3.28
2017-03-12T01:29:49.360Z,3.29
2017-03-12T01:30:30.242Z,3.42
2017-03-12T01:31:11.126Z,3.42
2017-03-12T01:31:52.006Z,3.42
2017-03-12T01:32:32.894Z,3.36
2017-03-12T01:33:13.787Z,3.26
2017-03-12T01:33:54.670Z,3.28
2017-03-12T01:34:35.549Z,3.22
2017-03-12T01:35:16.430Z,3.1
2017-03-12T01:35:57.343Z,3.13
2017-03-12T01:36:38.196Z,3.14
2017-03-12T01:37:19.082Z,3.26
2017-03-12T01:37:59.959Z,3.37
2017-03-12T01:38:40.847Z,3.23
2017-03-12T01:39:21.728Z,3.21
2017-03-12T01:40:02.616Z,3.22
2017-03-12T01:40:43.499Z,3.11
2017-03-12T01:41:24.386Z,3.13
2017-03-12T01:42:05.272Z,3.23
2017-03-12T01:42:46.151Z,3.13
2017-03-12T01:43:27.031Z,3.08
2017-03-12T01:44:07.905Z,2.98
2017-03-12T01:44:48.786Z,3
2017-03-12T01:45:29.666Z,3.05
2017-03-12T01:46:10.542Z,3.26
2017-03-12T01:46:51.408Z,3.14
2017-03-12T01:47:32.290Z,3.05
2017-03-12T01:48:13.181Z,3.23
2017-03-12T01:48:54.072Z,3.25
2017-03-12T01:49:34.956Z,3
2017-03-12T01:50:15.836Z,3.03
2017-03-12T01:50:56.722Z,3.05
2017-03-12T01:51:37.604Z,3.04
2017-03-12T01:52:18.488Z,3.08
2017-03-12T01:52:59.378Z,3.1
2017-03-12T01:53:40.263Z,3.11
2017-03-12T01:54:21.139Z,3.07
2017-03-12T01:55:02.020Z,3.03
2017-03-12T01:55:42.896Z,2.93
2017-03-12T01:56:23.784Z,2.87
2017-03-12T01:57:04.669Z,2.85
2017-03-12T01:57:45.552Z,2.87
2017-03-12T01:58:26.431Z,2.97
2017-03-12T01:59:07.303Z,2.87
2017-03-12T01:59:48.180Z,3.05
2017-03-12T02:00:29.065Z,3
2017-03-12T02:01:09.947Z,2.98
2017-03-12T02:01:50.834Z,2.97
2017-03-12T02:02:31.723Z,2.93
2017-03-12T02:03:12.601Z,2.98
2017-03-12T02:03:53.474Z,2.9
2017-03-12T02:04:34.360Z,2.82
2017-03-12T02:05:15.243Z,2.85
2017-03-12T02:05:56.132Z,2.71
2017-03-12T02:06:37.009Z,2.83
2017-03-12T02:07:17.892Z,2.98
2017-03-12T02:07:58.778Z,3.1
2017-03-12T02:08:39.660Z,3.13
2017-03-12T02:09:20.543Z,3.05
2017-03-12T02:11:39.435Z,2.97
2017-03-12T02:12:20.315Z,2.92
2017-03-12T02:13:01.194Z,3.01
2017-03-12T02:13:42.075Z,3.16
2017-03-12T02:14:22.957Z,2.98
2017-03-12T02:15:03.838Z,2.93
2017-03-12T02:15:44.721Z,2.71
2017-03-12T02:16:25.602Z,2.62
2017-03-12T02:17:06.475Z,2.68
2017-03-12T02:17:47.362Z,2.61
2017-03-12T02:18:28.236Z,2.75
2017-03-12T02:19:09.118Z,2.61
2017-03-12T02:19:49.994Z,2.62
2017-03-12T02:20:30.883Z,2.61
2017-03-12T02:21:11.757Z,2.64
2017-03-12T02:21:52.641Z,2.86
2017-03-12T02:22:33.520Z,2.86
2017-03-12T02:23:14.398Z,2.74
2017-03-12T02:23:55.280Z,2.71
2017-03-12T02:24:36.160Z,2.62
2017-03-12T02:25:17.041Z,2.56
2017-03-12T02:25:57.921Z,2.69
2017-03-12T02:26:38.803Z,2.87
2017-03-12T02:27:19.692Z,2.82
2017-03-12T02:28:00.575Z,2.97
2017-03-12T02:28:41.456Z,3
2017-03-12T02:29:22.362Z,2.97
2017-03-12T02:30:03.221Z,3.01
2017-03-12T02:30:44.099Z,2.93
2017-03-12T02:31:24.978Z,2.93
2017-03-12T02:32:05.850Z,2.93
2017-03-12T02:32:46.732Z,2.97
2017-03-12T02:33:27.615Z,2.83
2017-03-12T02:34:08.499Z,2.69
2017-03-12T02:34:49.379Z,2.69
2017-03-12T02:35:30.258Z,2.75
2017-03-12T02:36:11.157Z,2.86
2017-03-12T02:36:52.036Z,2.71
2017-03-12T02:37:32.914Z,2.77
2017-03-12T02:38:13.798Z,2.74
2017-03-12T02:38:54.681Z,2.72
2017-03-12T02:39:35.566Z,2.8
2017-03-12T02:40:16.448Z,2.85
2017-03-12T02:40:57.331Z,2.83
2017-03-12T02:41:38.212Z,2.61
2017-03-12T02:42:19.097Z,2.5
2017-03-12T02:42:59.983Z,2.46
2017-03-12T02:43:40.865Z,2.53
2017-03-12T02:44:21.746Z,2.61
2017-03-12T02:45:02.636Z,2.65
2017-03-12T02:45:43.510Z,2.49
2017-03-12T02:46:24.400Z,2.69
2017-03-12T02:47:05.282Z,2.51
2017-03-12T02:47:46.157Z,2.46
2017-03-12T02:48:27.034Z,2.53
2017-03-12T02:49:07.917Z,2.54
2017-03-12T02:49:48.815Z,2.49
2017-03-12T02:50:29.698Z,2.53
2017-03-12T02:51:10.569Z,2.53
2017-03-12T02:51:51.441Z,2.64
2017-03-12T02:52:32.321Z,2.67
2017-03-12T02:53:13.201Z,2.71
2017-03-12T02:53:54.088Z,2.71
2017-03-12T02:54:34.968Z,2.68
2017-03-12T02:55:15.853Z,2.53
2017-03-12T02:55:56.740Z,2.43
2017-03-12T02:56:37.622Z,2.49
2017-03-12T02:57:18.501Z,2.36
2017-03-12T02:57:59.383Z,2.47
2017-03-12T02:58:40.267Z,2.51
2017-03-12T02:59:21.148Z,2.53
2017-03-12T03:00:02.028Z,2.46
2017-03-12T03:00:42.911Z,2.46
2017-03-12T03:01:23.792Z,2.46
2017-03-12T03:02:04.670Z,2.43
2017-03-12T03:02:45.550Z,2.43
2017-03-12T03:03:26.429Z,2.29
2017-03-12T03:04:07.323Z,2.35
2017-03-12T03:04:48.206Z,2.36
2017-03-12T03:05:29.085Z,2.32
2017-03-12T03:06:09.968Z,2.53
2017-03-12T03:06:50.847Z,2.46
2017-03-12T03:07:31.730Z,2.39
2017-03-12T03:08:12.618Z,2.29
2017-03-12T03:08:53.493Z,2.24
2017-03-12T03:09:34.378Z,2.26
2017-03-12T03:10:15.259Z,2.18
2017-03-12T03:10:56.139Z,2.29
2017-03-12T03:11:37.016Z,2.25
2017-03-12T03:12:17.899Z,2.32
2017-03-12T03:12:58.780Z,2.24
2017-03-12T03:13:39.693Z,2.25
2017-03-12T03:14:20.538Z,2.29
2017-03-12T03:15:01.415Z,2.24
2017-03-12T03:15:42.300Z,2.32
2017-03-12T03:16:23.183Z,2.47
2017-03-12T03:17:04.070Z,2.36
2017-03-12T03:17:44.942Z,2.35
2017-03-12T03:18:25.814Z,2.36
2017-03-12T03:19:06.697Z,2.29
2017-03-12T03:19:47.583Z,2.26
2017-03-12T03:20:28.474Z,2.18
2017-03-12T03:21:09.355Z,2.29
2017-03-12T03:21:50.234Z,2.36
2017-03-12T03:22:31.116Z,2.47
2017-03-12T03:23:12.001Z,2.47
2017-03-12T03:23:52.875Z,2.54
2017-03-12T03:24:33.762Z,2.46
2017-03-12T03:25:14.644Z,2.32
2017-03-12T03:25:55.520Z,2.39
2017-03-12T03:26:36.393Z,2.28
2017-03-12T03:27:17.279Z,2.28
2017-03-12T03:27:58.161Z,2.26
2017-03-12T03:28:39.053Z,2.29
2017-03-12T03:29:19.927Z,2.25
2017-03-12T03:30:00.808Z,2.36
2017-03-12T03:30:41.685Z,2.29
2017-03-12T03:31:22.562Z,2.31
2017-03-12T03:32:03.447Z,2.33
2017-03-12T03:32:44.344Z,2.29
2017-03-12T03:33:25.226Z,2.32
2017-03-12T03:34:06.109Z,2.2
2017-03-12T03:34:46.986Z,2.38
2017-03-12T03:35:27.871Z,2.43
2017-03-12T03:36:08.776Z,2.32
2017-03-12T03:36:49.653Z,2.33
2017-03-12T03:37:30.536Z,2.28
2017-03-12T03:38:11.403Z,2.32
2017-03-12T03:38:52.276Z,2.32
2017-03-12T03:39:33.160Z,2.2
2017-03-12T03:40:14.045Z,2.1
2017-03-12T03:40:54.922Z,2.11
2017-03-12T03:41:35.804Z,2.17
2017-03-12T03:42:16.682Z,2.22
2017-03-12T03:42:57.564Z,2.18
2017-03-12T03:43:38.444Z,2.24
2017-03-12T03:44:19.324Z,2.24
2017-03-12T03:45:00.197Z,2.36
2017-03-12T03:45:41.082Z,2.25
2017-03-12T03:46:21.965Z,2.29
2017-03-12T03:47:02.846Z,2.25
2017-03-12T03:47:43.723Z,2.28
2017-03-12T03:48:24.607Z,2.22
2017-03-12T03:49:05.488Z,2.33
2017-03-12T03:49:46.374Z,2.32
2017-03-12T03:50:27.256Z,2.39
2017-03-12T03:51:08.141Z,2.17
2017-03-12T03:51:49.017Z,2.24
2017-03-12T03:52:29.901Z,2.26
2017-03-12T03:53:10.777Z,2.31
2017-03-12T03:53:51.665Z,2.29
2017-03-12T03:54:32.549Z,2.31
2017-03-12T03:55:13.436Z,2.32
2017-03-12T03:55:54.315Z,2.2
2017-03-12T03:56:35.198Z,2.25
2017-03-12T03:57:16.073Z,2.26
2017-03-12T03:57:56.959Z,2.22
2017-03-12T03:58:37.838Z,2.22
2017-03-12T03:59:18.716Z,2.15
2017-03-12T03:59:59.598Z,2.08
2017-03-12T04:00:40.489Z,2.04
2017-03-12T04:01:21.368Z,2.13
2017-03-12T04:02:02.246Z,2.06
2017-03-12T04:02:43.131Z,2.18
2017-03-12T04:03:24.014Z,2.18
2017-03-12T04:04:04.894Z,2.35
2017-03-12T04:04:45.774Z,2.26
2017-03-12T04:05:26.656Z,2.31
2017-03-12T04:06:07.530Z,2.38
2017-03-12T04:06:48.415Z,2.35
2017-03-12T04:07:29.291Z,2.31
2017-03-12T04:08:10.211Z,2.33
2017-03-12T04:08:51.094Z,2.33
2017-03-12T04:09:31.969Z,2.22
2017-03-12T04:10:12.846Z,2.24
2017-03-12T04:10:53.728Z,2.15
2017-03-12T04:11:34.602Z,2.07
2017-03-12T04:12:15.484Z,2.2
2017-03-12T04:12:56.373Z,2.13
2017-03-12T04:13:37.264Z,2.13
2017-03-12T04:14:18.138Z,1.94
2017-03-12T04:14:59.028Z,2
2017-03-12T04:15:39.906Z,2.26
2017-03-12T04:16:20.798Z,2.22
2017-03-12T04:17:01.675Z,2.22
2017-03-12T04:17:42.557Z,2.11
2017-03-12T04:18:23.438Z,2.17
2017-03-12T04:19:04.316Z,1.94
2017-03-12T04:19:45.191Z,2.2
2017-03-12T04:20:26.074Z,2.14
2017-03-12T04:21:06.952Z,2.29
2017-03-12T04:21:47.830Z,2.28
2017-03-12T04:22:28.709Z,2.22
2017-03-12T04:23:09.591Z,2.22
2017-03-12T04:23:50.475Z,2.11
2017-03-12T04:24:31.363Z,2.15
2017-03-12T04:25:12.244Z,2.24
2017-03-12T04:25:53.128Z,2.24
2017-03-12T04:26:34.008Z,2.02
2017-03-12T04:27:14.886Z,1.89
2017-03-12T04:27:55.763Z,2.06
2017-03-12T04:28:36.649Z,2.04
2017-03-12T04:29:17.531Z,2.1
2017-03-12T04:29:58.413Z,2.26
2017-03-12T04:30:39.293Z,2.13
2017-03-12T04:31:20.176Z,1.99
2017-03-12T04:32:01.050Z,1.97
2017-03-12T04:32:41.933Z,1.68
2017-03-12T04:33:22.814Z,1.68
2017-03-12T04:34:03.693Z,1.87
2017-03-12T04:34:44.578Z,2.04
2017-03-12T04:35:25.453Z,1.91
2017-03-12T04:36:06.330Z,1.76
2017-03-12T04:36:47.209Z,1.85
2017-03-12T04:37:28.081Z,1.92
2017-03-12T04:38:08.959Z,1.94
2017-03-12T04:38:49.833Z,2
2017-03-12T04:39:30.720Z,1.92
2017-03-12T04:40:11.592Z,1.95
2017-03-12T04:40:52.463Z,1.99
2017-03-12T04:41:33.338Z,1.89
2017-03-12T04:42:14.216Z,2.04
2017-03-12T04:42:55.088Z,2.04
2017-03-12T04:43:35.961Z,2.08
2017-03-12T04:44:16.838Z,2.13
2017-03-12T04:44:57.712Z,2.11
2017-03-12T04:45:38.613Z,2.07
2017-03-12T04:46:19.491Z,2.14
2017-03-12T04:47:00.364Z,2.06
2017-03-12T04:47:41.240Z,2.07
2017-03-12T04:48:22.121Z,2.11
2017-03-12T04:49:02.998Z,2.17
2017-03-12T04:49:43.874Z,2.07
2017-03-12T04:50:24.751Z,2.04
2017-03-12T04:51:05.625Z,2.08
2017-03-12T04:51:46.499Z,2
2017-03-12T04:52:27.374Z,1.91
2017-03-12T04:53:08.251Z,2.04
2017-03-12T04:53:49.126Z,2.04
2017-03-12T04:54:30.000Z,1.94
2017-03-12T04:55:10.869Z,1.94
2017-03-12T04:55:51.744Z,1.85
2017-03-12T04:56:32.617Z,1.87
2017-03-12T04:57:13.502Z,1.85
2017-03-12T04:57:54.383Z,1.92
2017-03-12T04:58:35.253Z,1.81
2017-03-12T04:59:16.122Z,1.88
2017-03-12T04:59:56.998Z,1.95
2017-03-12T05:00:37.873Z,1.97
2017-03-12T05:01:18.752Z,1.91
2017-03-12T05:01:59.627Z,1.95
2017-03-12T05:02:40.499Z,2.02
2017-03-12T05:03:21.378Z,2.13
2017-03-12T05:04:02.259Z,2.08
2017-03-12T05:04:43.138Z,1.95
2017-03-12T05:05:24.015Z,1.89
2017-03-12T05:06:04.898Z,1.89
2017-03-12T05:06:45.775Z,1.94
2017-03-12T05:07:26.655Z,1.88
2017-03-12T05:08:07.534Z,1.66
2017-03-12T05:08:48.421Z,1.67
2017-03-12T05:09:29.292Z,1.66
2017-03-12T05:10:10.169Z,1.62
2017-03-12T05:10:51.041Z,1.74
2017-03-12T05:11:31.919Z,1.66
2017-03-12T05:12:12.792Z,1.58
2017-03-12T05:12:53.671Z,1.71
2017-03-12T05:13:34.544Z,1.74
2017-03-12T05:14:15.438Z,1.88
2017-03-12T05:14:56.314Z,1.76
2017-03-12T05:15:37.196Z,1.62
2017-03-12T05:16:18.074Z,1.7
2017-03-12T05:16:58.948Z,1.56
2017-03-12T05:17:39.825Z,1.58
2017-03-12T05:18:20.693Z,1.63
2017-03-12T05:19:01.580Z,1.71
2017-03-12T05:19:42.448Z,1.73
2017-03-12T05:20:23.319Z,1.62
2017-03-12T05:21:04.200Z,1.74
2017-03-12T05:21:45.074Z,1.76
2017-03-12T05:22:25.956Z,1.59
2017-03-12T05:23:06.831Z,1.59
2017-03-12T05:23:47.701Z,1.59
2017-03-12T05:24:28.578Z,1.6
2017-03-12T05:25:09.454Z,1.63
2017-03-12T05:25:50.325Z,1.55
2017-03-12T05:26:31.203Z,1.56
2017-03-12T05:27:12.081Z,1.7
2017-03-12T05:27:52.957Z,1.71
2017-03-12T05:28:33.830Z,1.76
2017-03-12T05:29:14.699Z,1.91
2017-03-12T05:29:55.574Z,1.97
2017-03-12T05:30:36.452Z,1.94
2017-03-12T05:31:17.328Z,1.81
2017-03-12T05:31:58.202Z,1.89
2017-03-12T05:32:39.074Z,1.77
2017-03-12T05:33:19.949Z,1.77
2017-03-12T05:34:00.820Z,1.77
2017-03-12T05:34:41.696Z,1.66
2017-03-12T05:35:22.568Z,1.63
2017-03-12T05:36:03.478Z,1.58
2017-03-12T05:36:44.353Z,1.56
2017-03-12T05:37:25.231Z,1.7
2017-03-12T05:38:06.110Z,1.71
2017-03-12T05:38:46.985Z,1.68
2017-03-12T05:39:27.860Z,1.6
2017-03-12T05:40:08.743Z,1.59
2017-03-12T05:40:49.619Z,1.66
2017-03-12T05:41:30.494Z,1.56
2017-03-12T05:42:11.377Z,1.6
2017-03-12T05:42:52.246Z,1.7
2017-03-12T05:43:33.128Z,1.7
2017-03-12T05:44:14.004Z,1.73
2017-03-12T05:44:54.876Z,1.8
2017-03-12T05:45:35.756Z,1.71
2017-03-12T05:46:16.631Z,1.73
2017-03-12T05:46:57.499Z,1.74
2017-03-12T05:47:38.377Z,1.74
2017-03-12T05:48:19.253Z,1.74
2017-03-12T05:49:00.131Z,1.84
2017-03-12T05:49:41.009Z,1.77
2017-03-12T05:50:21.882Z,1.63
2017-03-12T05:51:02.754Z,1.62
2017-03-12T05:51:43.626Z,1.66
2017-03-12T05:52:24.513Z,1.77
2017-03-12T05:53:05.391Z,1.74
2017-03-12T05:53:46.260Z,1.88
2017-03-12T05:54:27.134Z,1.76
2017-03-12T05:55:08.008Z,1.68
2017-03-12T05:55:48.890Z,1.84
2017-03-12T05:56:29.765Z,1.89
2017-03-12T05:57:10.643Z,1.88
2017-03-12T05:57:51.516Z,1.89
2017-03-12T05:58:32.392Z,1.85
2017-03-12T05:59:13.266Z,1.85
2017-03-12T05:59:54.139Z,1.87
2017-03-12T06:00:35.012Z,1.85
2017-03-12T06:01:15.883Z,1.92
2017-03-12T06:01:56.757Z,1.94
2017-03-12T06:02:37.632Z,1.88
2017-03-12T06:03:18.503Z,1.78
2017-03-12T06:03:59.379Z,1.56
2017-03-12T06:04:40.258Z,1.56
2017-03-12T06:05:21.132Z,1.56
2017-03-12T06:06:02.013Z,1.56
2017-03-12T06:06:42.877Z,1.66
2017-03-12T06:07:23.756Z,1.71
2017-03-12T06:08:04.624Z,1.78
2017-03-12T06:08:45.497Z,1.68
2017-03-12T06:09:26.371Z,1.67
2017-03-12T06:10:07.245Z,1.71
2017-03-12T06:10:48.121Z,1.62
2017-03-12T06:11:28.994Z,1.68
2017-03-12T06:12:09.870Z,1.7
2017-03-12T06:12:50.744Z,1.84
2017-03-12T06:13:31.622Z,1.76
2017-03-12T06:14:12.503Z,1.77
2017-03-12T06:14:53.374Z,1.95
2017-03-12T06:15:34.244Z,1.91
2017-03-12T06:16:15.121Z,1.91
2017-03-12T06:16:56.002Z,1.88
2017-03-12T06:17:36.865Z,1.6
2017-03-12T06:18:17.740Z,1.6
2017-03-12T06:18:58.610Z,1.68
2017-03-12T06:19:39.484Z,1.77
2017-03-12T06:20:20.363Z,1.68
2017-03-12T06:21:01.246Z,1.62
2017-03-12T06:21:42.123Z,1.71
2017-03-12T06:22:23.001Z,1.85
2017-03-12T06:23:03.902Z,1.76
2017-03-12T06:23:44.777Z,1.6
2017-03-12T06:24:25.656Z,1.58
2017-03-12T06:25:06.534Z,1.66
2017-03-12T06:25:47.407Z,1.62
2017-03-12T06:26:28.281Z,1.7
2017-03-12T06:27:09.157Z,1.68
2017-03-12T06:27:50.036Z,1.68
2017-03-12T06:28:30.914Z,1.59
2017-03-12T06:29:11.787Z,1.66
2017-03-12T06:29:52.667Z,1.6
2017-03-12T06:30:33.540Z,1.81
2017-03-12T06:31:14.417Z,1.91
2017-03-12T06:31:55.298Z,1.84
2017-03-12T06:32:36.166Z,1.7
2017-03-12T06:33:17.039Z,1.92
2017-03-12T06:33:57.911Z,1.85
2017-03-12T06:34:38.792Z,1.88
2017-03-12T06:35:19.668Z,1.88
2017-03-12T06:36:00.538Z,2.02
2017-03-12T06:36:41.412Z,2.06
2017-03-12T06:37:22.282Z,2.08
2017-03-12T06:38:03.159Z,2.07
2017-03-12T06:38:44.041Z,2.07
2017-03-12T06:39:24.919Z,1.95
2017-03-12T06:40:05.799Z,1.95
2017-03-12T06:40:46.674Z,1.91
2017-03-12T06:41:27.550Z,1.99
2017-03-12T06:42:08.433Z,2.1
2017-03-12T06:42:49.311Z,1.91
2017-03-12T06:43:30.187Z,1.88
2017-03-12T06:44:11.063Z,1.97
2017-03-12T06:44:51.941Z,2.04
2017-03-12T06:45:32.819Z,2.07
2017-03-12T06:46:13.699Z,1.91
2017-03-12T06:46:54.578Z,2.07
2017-03-12T06:47:35.454Z,2.04
2017-03-12T06:48:16.328Z,2.02
2017-03-12T06:48:57.204Z,2.04
2017-03-12T06:49:38.077Z,2.04
2017-03-12T06:50:18.954Z,2.02
2017-03-12T06:50:59.829Z,1.91
2017-03-12T06:51:40.703Z,2.07
2017-03-12T06:52:21.576Z,1.99
2017-03-12T06:53:02.452Z,2.1
2017-03-12T06:53:43.326Z,2.24
2017-03-12T06:54:24.202Z,2.31
2017-03-12T06:55:05.083Z,2.29
2017-03-12T06:55:45.957Z,2.26
2017-03-12T06:56:26.825Z,2.14
2017-03-12T06:57:07.699Z,2.18
2017-03-12T06:57:48.570Z,2.13
2017-03-12T06:58:29.451Z,2.26
2017-03-12T06:59:10.323Z,2.25
2017-03-12T06:59:51.203Z,2.28
2017-03-12T07:00:32.078Z,2.28
2017-03-12T07:01:12.950Z,2.35
2017-03-12T07:01:53.823Z,2.44
2017-03-12T07:02:34.701Z,2.43
2017-03-12T07:03:15.578Z,2.49
2017-03-12T07:03:56.453Z,2.42
2017-03-12T07:04:37.314Z,2.32
2017-03-12T07:05:18.177Z,2.29
2017-03-12T07:05:59.061Z,2.31
2017-03-12T07:06:39.936Z,2.29
2017-03-12T07:07:20.812Z,2.44
2017-03-12T07:08:01.689Z,2.56
2017-03-12T07:08:42.564Z,2.61
2017-03-12T07:09:23.440Z,2.54
2017-03-12T07:10:04.311Z,2.5
2017-03-12T07:10:45.185Z,2.64
2017-03-12T07:11:26.067Z,2.65
2017-03-12T07:12:06.946Z,2.61
2017-03-12T07:12:47.819Z,2.68
2017-03-12T07:13:28.693Z,2.62
2017-03-12T07:14:09.576Z,2.75
2017-03-12T07:14:50.449Z,2.68
2017-03-12T07:15:31.329Z,2.67
2017-03-12T07:16:12.208Z,2.75
2017-03-12T07:16:53.082Z,2.77
2017-03-12T07:17:33.961Z,2.82
2017-03-12T07:18:14.839Z,2.85
2017-03-12T07:18:55.721Z,2.85
2017-03-12T07:19:36.594Z,2.77
2017-03-12T07:20:17.467Z,2.69
2017-03-12T07:20:58.347Z,2.82
2017-03-12T07:21:39.229Z,2.6
2017-03-12T07:22:20.107Z,2.8
2017-03-12T07:23:00.976Z,2.93
2017-03-12T07:23:41.856Z,2.83
2017-03-12T07:24:22.725Z,2.8
2017-03-12T07:25:03.606Z,2.71
2017-03-12T07:25:44.485Z,2.64
2017-03-12T07:26:25.365Z,2.72
2017-03-12T07:27:06.238Z,2.62
2017-03-12T07:27:47.114Z,2.83
2017-03-12T07:28:28.010Z,2.65
2017-03-12T07:29:08.888Z,2.62
2017-03-12T07:29:49.764Z,2.71
2017-03-12T07:30:30.638Z,2.74
2017-03-12T07:31:11.531Z,2.8
2017-03-12T07:31:52.413Z,2.8
2017-03-12T07:32:33.293Z,2.83
2017-03-12T07:33:14.183Z,2.69
2017-03-12T07:33:55.056Z,2.85
2017-03-12T07:34:35.937Z,2.87
2017-03-12T07:35:16.813Z,2.93
2017-03-12T07:35:57.685Z,2.87
2017-03-12T07:36:38.562Z,2.93
2017-03-12T07:37:19.433Z,2.95
2017-03-12T07:38:00.311Z,2.83
2017-03-12T07:38:41.188Z,2.8
2017-03-12T07:39:22.061Z,2.82
2017-03-12T07:40:02.931Z,2.85
2017-03-12T07:40:43.835Z,2.83
2017-03-12T07:41:24.710Z,2.75
2017-03-12T07:42:05.592Z,2.8
2017-03-12T07:42:46.467Z,2.85
2017-03-12T07:43:27.343Z,2.85
2017-03-12T07:44:08.219Z,2.8
2017-03-12T07:44:49.100Z,2.62
2017-03-12T07:45:29.983Z,2.74
2017-03-12T07:46:10.856Z,2.74
2017-03-12T07:46:51.729Z,2.8
2017-03-12T07:47:32.619Z,2.92
2017-03-12T07:48:13.506Z,2.92
2017-03-12T07:48:54.387Z,2.79
2017-03-12T07:49:35.269Z,2.95
2017-03-12T07:50:16.150Z,2.95
2017-03-12T07:50:57.023Z,3.03
2017-03-12T07:51:37.901Z,3.08
2017-03-12T07:52:18.778Z,3.04
2017-03-12T07:52:59.661Z,3.01
2017-03-12T07:53:40.524Z,2.82
2017-03-12T07:54:21.398Z,2.75
2017-03-12T07:55:02.278Z,3.03
2017-03-12T07:55:43.153Z,3.07
2017-03-12T07:56:24.018Z,3.08
2017-03-12T07:57:04.889Z,2.9
2017-03-12T07:57:45.767Z,2.85
2017-03-12T07:58:26.647Z,2.92
2017-03-12T07:59:07.519Z,2.97
2017-03-12T07:59:48.402Z,2.8
2017-03-12T08:00:29.284Z,2.79
2017-03-12T08:01:10.163Z,2.83
2017-03-12T08:01:51.039Z,2.6
2017-03-12T08:02:31.924Z,2.8
2017-03-12T08:03:12.801Z,2.87
2017-03-12T08:03:53.679Z,2.71
2017-03-12T08:04:34.553Z,2.62
2017-03-12T08:05:15.428Z,2.69
2017-03-12T08:05:56.309Z,2.53
2017-03-12T08:06:37.187Z,2.75
2017-03-12T08:07:18.063Z,2.92
2017-03-12T08:07:58.938Z,3.13
2017-03-12T08:08:39.809Z,3.05
2017-03-12T08:09:20.679Z,3.11
2017-03-12T08:10:01.552Z,3.22
2017-03-12T08:10:42.430Z,3.25
2017-03-12T08:11:23.310Z,3.16
2017-03-12T08:12:04.184Z,3.13
2017-03-12T08:12:45.058Z,3.18
2017-03-12T08:13:25.940Z,3.11
2017-03-12T08:14:06.819Z,3.22
2017-03-12T08:16:06.345Z,3.14
2017-03-12T08:16:47.208Z,3.14
2017-03-12T08:17:28.086Z,3.26
2017-03-12T08:18:08.957Z,3.25
2017-03-12T08:18:49.838Z,3.05
2017-03-12T08:19:30.711Z,3.11
2017-03-12T08:20:11.572Z,3.28
2017-03-12T08:20:52.457Z,3.28
2017-03-12T08:21:33.321Z,3.28
2017-03-12T08:22:14.211Z,3.45
2017-03-12T08:22:55.067Z,3.32
2017-03-12T08:23:35.940Z,3.31
2017-03-12T08:24:16.803Z,3.42
2017-03-12T08:24:57.682Z,3.53
2017-03-12T08:25:38.547Z,3.45
2017-03-12T08:26:19.480Z,3.41
2017-03-12T08:27:00.359Z,3.37
2017-03-12T08:27:41.230Z,3.44
2017-03-12T08:28:22.108Z,3.56
2017-03-12T08:29:02.983Z,3.51
2017-03-12T08:29:43.865Z,3.5
2017-03-12T08:30:24.740Z,3.44
2017-03-12T08:31:05.615Z,3.41
2017-03-12T08:31:46.498Z,3.53
2017-03-12T08:32:27.375Z,3.65
2017-03-12T08:33:08.247Z,3.77
2017-03-12T08:33:49.122Z,3.74
2017-03-12T08:34:29.991Z,3.86
2017-03-12T08:35:10.867Z,3.87
2017-03-12T08:35:51.737Z,3.94
2017-03-12T08:36:32.603Z,3.99
2017-03-12T08:37:13.477Z,3.63
2017-03-12T08:37:54.361Z,3.84
2017-03-12T08:38:35.242Z,3.8
2017-03-12T08:39:16.121Z,3.87
2017-03-12T08:39:56.985Z,3.98
2017-03-12T08:40:37.865Z,3.83
2017-03-12T08:41:18.738Z,3.63
2017-03-12T08:41:59.607Z,3.59
2017-03-12T08:42:40.480Z,3.53
2017-03-12T08:43:21.356Z,3.42
2017-03-12T08:44:02.232Z,3.51
2017-03-12T08:44:43.091Z,3.74
2017-03-12T08:45:23.954Z,3.63
2017-03-12T08:46:04.842Z,3.69
2017-03-12T08:46:45.727Z,3.78
2017-03-12T08:47:26.605Z,3.94
2017-03-12T08:48:07.475Z,4.04
2017-03-12T08:48:48.344Z,4.17
2017-03-12T08:49:29.219Z,3.8
2017-03-12T08:50:10.094Z,3.86
2017-03-12T08:50:50.974Z,3.92
2017-03-12T08:51:31.846Z,4.05
2017-03-12T08:52:12.714Z,3.94
2017-03-12T08:52:53.588Z,3.91
2017-03-12T08:53:34.463Z,3.87
2017-03-12T08:54:15.339Z,3.95
2017-03-12T08:54:56.223Z,3.91
2017-03-12T08:55:37.104Z,3.86
2017-03-12T08:56:17.970Z,3.87
2017-03-12T08:56:58.852Z,3.98
2017-03-12T08:57:39.731Z,3.96
2017-03-12T08:58:20.597Z,4.23
2017-03-12T08:59:01.484Z,4.41
2017-03-12T08:59:42.351Z,4.49
2017-03-12T09:00:23.224Z,4.5
2017-03-12T09:01:04.090Z,4.63
2017-03-12T09:01:44.971Z,4.44
2017-03-12T09:02:25.845Z,4.31
2017-03-12T09:03:06.720Z,4.35
2017-03-12T09:03:47.594Z,4.3
2017-03-12T09:04:28.468Z,4.32
2017-03-12T09:05:09.350Z,4.34
2017-03-12T09:05:50.220Z,4.49
2017-03-12T09:06:31.092Z,4.63
2017-03-12T09:07:11.971Z,4.7
2017-03-12T09:07:52.847Z,4.75
2017-03-12T09:08:33.750Z,4.73
2017-03-12T09:09:14.634Z,4.32